Time;durP1;ratioP1;P1;durP2;ratioP2;P2;SDS_P1;SDS_P2;PMS_P1;PMS_P2;Temp;Humidity;BMP_temperature;BMP_pressure;BME280_temperature;BME280_humidity;BME280_pressure;Samples;Min_cycle;Max_cycle;Signal;HPM_P1;HPM_P2
2022/08/04 00:00:29;;;;;;;1.98;0.80;;;24.20;90.10;;;;;;5023538;28;46396;-66
2022/08/04 00:03:04;;;;;;;1.88;0.90;;;24.20;90.10;;;;;;5034757;28;45408;-66
2022/08/04 00:05:40;;;;;;;1.00;0.75;;;24.20;90.10;;;;;;5036509;28;45301;-66
2022/08/04 00:08:14;;;;;;;1.02;0.70;;;24.20;90.00;;;;;;5036813;28;45368;-66
2022/08/04 00:10:48;;;;;;;1.05;0.80;;;24.20;90.00;;;;;;5038918;28;48071;-65
2022/08/04 00:13:16;;;;;;;3.05;1.13;;;24.20;90.00;;;;;;5036059;27;45738;-67
2022/08/04 00:15:45;;;;;;;1.42;1.10;;;24.20;90.00;;;;;;5037144;27;45390;-66
2022/08/04 00:18:15;;;;;;;1.48;0.90;;;24.20;90.00;;;;;;5037972;27;45515;-66
2022/08/04 00:20:42;;;;;;;2.25;0.85;;;24.20;90.00;;;;;;5030871;27;46274;-67
2022/08/04 00:23:10;;;;;;;1.92;0.73;;;24.20;90.00;;;;;;5036873;27;45400;-66
2022/08/04 00:25:40;;;;;;;1.38;0.90;;;24.20;90.00;;;;;;5036992;28;45416;-66
2022/08/04 00:28:09;;;;;;;1.00;0.75;;;24.20;90.40;;;;;;5035647;28;45510;-67
2022/08/04 00:30:36;;;;;;;0.90;0.80;;;24.20;90.00;;;;;;5037109;27;47060;-66
2022/08/04 00:33:03;;;;;;;3.10;0.85;;;24.20;90.00;;;;;;5036732;28;45393;-68
2022/08/04 00:35:31;;;;;;;2.55;1.00;;;24.20;90.00;;;;;;5038366;27;45296;-66
2022/08/04 00:37:59;;;;;;;1.80;0.90;;;24.20;90.00;;;;;;5037175;28;45443;-66
2022/08/04 00:40:33;;;;;;;2.25;1.25;;;24.20;90.00;;;;;;5037064;28;45829;-66
2022/08/04 00:43:12;;;;;;;2.67;0.93;;;24.20;90.00;;;;;;5037937;28;46086;-66
2022/08/04 00:46:07;;;;;;;1.48;0.82;;;24.20;90.00;;;;;;5031136;28;45349;-66
2022/08/04 00:48:57;;;;;;;1.00;0.80;;;24.20;90.00;;;;;;5036457;28;45245;-66
2022/08/04 00:51:38;;;;;;;2.25;0.70;;;24.20;90.00;;;;;;5035824;27;45502;-67
2022/08/04 00:54:11;;;;;;;2.25;0.80;;;24.20;90.00;;;;;;5036480;28;45546;-67
2022/08/04 00:57:01;;;;;;;1.63;0.95;;;24.20;90.00;;;;;;5030260;28;45419;-66
2022/08/04 00:59:41;;;;;;;0.75;0.60;;;24.20;89.90;;;;;;5037937;28;45341;-66
2022/08/04 01:02:24;;;;;;;1.50;0.70;;;24.20;89.90;;;;;;5023614;27;47094;-67
2022/08/04 01:05:02;;;;;;;0.98;0.75;;;24.20;89.90;;;;;;5033453;28;45276;-66
2022/08/04 01:07:46;;;;;;;2.33;0.80;;;24.20;89.90;;;;;;5036331;28;45380;-66
2022/08/04 01:10:23;;;;;;;1.33;0.75;;;24.20;89.80;;;;;;5036492;28;45268;-67
2022/08/04 01:13:26;;;;;;;2.78;0.80;;;24.20;89.80;;;;;;5030174;27;46169;-66
2022/08/04 01:16:02;;;;;;;1.30;0.70;;;24.20;89.80;;;;;;5032641;28;45253;-66
2022/08/04 01:18:35;;;;;;;1.13;0.90;;;24.20;89.80;;;;;;5032878;28;45347;-67
2022/08/04 01:21:17;;;;;;;1.13;0.70;;;24.20;89.80;;;;;;5025340;28;45427;-66
2022/08/04 01:24:09;;;;;;;0.93;0.60;;;24.20;89.70;;;;;;5023594;28;47517;-67
2022/08/04 01:26:46;;;;;;;0.80;0.80;;;24.20;89.70;;;;;;5039390;28;45295;-65
2022/08/04 01:29:15;;;;;;;1.88;0.80;;;24.20;89.70;;;;;;5038008;28;45652;-66
2022/08/04 01:31:59;;;;;;;1.88;0.80;;;24.20;89.60;;;;;;5039313;28;45381;-66
2022/08/04 01:34:29;;;;;;;1.13;0.77;;;24.20;89.70;;;;;;5038138;27;48280;-66
2022/08/04 01:37:03;;;;;;;1.60;0.90;;;24.20;89.80;;;;;;5030593;28;45499;-67
2022/08/04 01:39:41;;;;;;;0.98;0.60;;;24.20;90.00;;;;;;5039288;28;45466;-66
2022/08/04 01:42:11;;;;;;;1.02;0.70;;;24.20;90.00;;;;;;5039377;28;45363;-67
2022/08/04 01:44:40;;;;;;;2.00;0.82;;;24.20;90.00;;;;;;5037804;28;45480;-65
2022/08/04 01:47:08;;;;;;;1.15;0.77;;;24.20;90.00;;;;;;5038199;28;45332;-66
2022/08/04 01:49:37;;;;;;;1.23;0.77;;;24.20;90.00;;;;;;5033862;28;45529;-66
2022/08/04 01:52:07;;;;;;;0.95;0.82;;;24.20;90.00;;;;;;5033907;28;45429;-66
2022/08/04 01:54:39;;;;;;;1.83;0.73;;;24.20;90.00;;;;;;5034070;28;46494;-66
2022/08/04 01:57:06;;;;;;;1.67;0.82;;;24.20;90.00;;;;;;5034512;27;45417;-67
2022/08/04 01:59:34;;;;;;;1.70;0.88;;;24.20;90.00;;;;;;5033327;28;45340;-67
2022/08/04 02:02:02;;;;;;;1.67;0.90;;;24.20;90.00;;;;;;5033725;28;45321;-67
2022/08/04 02:04:29;;;;;;;0.93;0.60;;;24.20;90.00;;;;;;5027827;28;47278;-66
2022/08/04 02:07:06;;;;;;;1.30;0.75;;;24.20;90.00;;;;;;5037929;27;45326;-66
2022/08/04 02:09:46;;;;;;;1.30;0.70;;;24.20;90.00;;;;;;5036282;28;45294;-66
2022/08/04 02:12:23;;;;;;;1.85;0.82;;;24.20;90.00;;;;;;5034624;28;45304;-67
2022/08/04 02:14:57;;;;;;;2.42;0.80;;;24.20;90.00;;;;;;5036089;28;47026;-66
2022/08/04 02:17:31;;;;;;;2.05;0.85;;;24.20;89.90;;;;;;5043418;28;45419;-66
2022/08/04 02:20:07;;;;;;;1.88;1.02;;;24.20;89.80;;;;;;5039822;27;45388;-66
2022/08/04 02:22:40;;;;;;;1.02;0.80;;;24.20;89.60;;;;;;5040408;27;45426;-66
2022/08/04 02:25:08;;;;;;;1.77;0.88;;;24.20;89.50;;;;;;5037499;28;48312;-66
2022/08/04 02:27:55;;;;;;;0.80;0.70;;;24.20;89.40;;;;;;5039293;27;45338;-66
2022/08/04 02:30:28;;;;;;;1.83;1.13;;;24.20;89.30;;;;;;5038497;28;45500;-67
2022/08/04 02:33:01;;;;;;;0.95;0.77;;;24.20;89.20;;;;;;5039753;28;45428;-66
2022/08/04 02:35:32;;;;;;;0.90;0.65;;;24.20;89.10;;;;;;5037587;28;46305;-66
2022/08/04 02:38:12;;;;;;;2.25;0.80;;;24.20;88.90;;;;;;5038986;28;45556;-66
2022/08/04 02:40:41;;;;;;;1.20;0.75;;;24.20;89.80;;;;;;5033921;27;45494;-66
2022/08/04 02:43:09;;;;;;;1.17;0.80;;;24.20;88.60;;;;;;5035724;28;45391;-67
2022/08/04 02:45:36;;;;;;;1.88;0.90;;;24.20;88.60;;;;;;5039158;27;47477;-66
2022/08/04 02:48:08;;;;;;;1.80;1.10;;;24.20;88.70;;;;;;5037928;28;45444;-66
2022/08/04 02:50:37;;;;;;;0.93;0.80;;;24.20;88.60;;;;;;5036931;28;45319;-66
2022/08/04 02:53:05;;;;;;;1.15;0.68;;;24.20;88.60;;;;;;5038988;28;45431;-66
2022/08/04 02:55:33;;;;;;;2.97;0.80;;;24.20;88.60;;;;;;5038412;28;45575;-67
2022/08/04 02:58:04;;;;;;;1.25;0.70;;;24.20;88.50;;;;;;5038478;28;45281;-66
2022/08/04 03:00:31;;;;;;;1.35;0.70;;;24.20;88.60;;;;;;5032019;27;45431;-66
2022/08/04 03:03:11;;;;;;;1.23;0.80;;;24.20;88.70;;;;;;5039355;28;45569;-67
2022/08/04 03:05:53;;;;;;;1.27;0.60;;;24.20;88.80;;;;;;5025775;27;46260;-66
2022/08/04 03:08:37;;;;;;;1.38;0.80;;;24.20;88.80;;;;;;5037824;28;45324;-66
2022/08/04 03:11:35;;;;;;;1.30;0.70;;;24.20;88.80;;;;;;5035016;28;45499;-66
2022/08/04 03:14:37;;;;;;;1.95;0.95;;;24.20;88.70;;;;;;5032597;28;45583;-66
2022/08/04 03:17:27;;;;;;;1.63;0.82;;;24.20;88.70;;;;;;5027077;28;45380;-66
2022/08/04 03:20:28;;;;;;;1.90;0.85;;;24.20;88.80;;;;;;5028986;28;45328;-67
2022/08/04 03:23:24;;;;;;;0.60;0.50;;;24.20;88.70;;;;;;5035073;28;45468;-67
2022/08/04 03:26:19;;;;;;;2.28;0.93;;;24.20;88.40;;;;;;5035097;28;45303;-68
2022/08/04 03:29:25;;;;;;;1.17;0.75;;;24.20;88.40;;;;;;5039476;28;47096;-66
2022/08/04 03:32:24;;;;;;;1.27;0.80;;;24.20;88.40;;;;;;5044803;28;45481;-66
2022/08/04 03:35:15;;;;;;;1.58;0.80;;;24.20;88.40;;;;;;5049248;28;45270;-66
2022/08/04 03:38:05;;;;;;;2.83;0.85;;;24.20;88.40;;;;;;5040919;28;45359;-66
2022/08/04 03:40:51;;;;;;;1.00;0.70;;;24.20;88.40;;;;;;5040553;28;45512;-65
2022/08/04 03:43:49;;;;;;;1.20;0.80;;;24.20;88.30;;;;;;5020901;28;45346;-65
2022/08/04 03:47:08;;;;;;;1.05;0.70;;;24.20;88.30;;;;;;5020347;28;45335;-66
2022/08/04 03:49:57;;;;;;;1.15;0.68;;;24.20;88.30;;;;;;5021168;28;45486;-66
2022/08/04 03:53:07;;;;;;;1.75;0.90;;;24.20;88.30;;;;;;5030261;28;48337;-66
2022/08/04 03:55:57;;;;;;;1.48;0.65;;;24.20;88.40;;;;;;5036868;27;45316;-66
2022/08/04 03:58:42;;;;;;;0.90;0.70;;;24.20;88.40;;;;;;5038005;27;45468;-66
2022/08/04 04:01:23;;;;;;;1.75;1.00;;;24.20;88.30;;;;;;5034264;27;45261;-66
2022/08/04 04:04:14;;;;;;;2.35;0.70;;;24.20;88.30;;;;;;5032535;28;46627;-66
2022/08/04 04:07:06;;;;;;;0.65;0.65;;;24.20;88.20;;;;;;5031438;28;45525;-66
2022/08/04 04:09:55;;;;;;;1.02;0.90;;;24.20;88.10;;;;;;5041274;28;45315;-66
2022/08/04 04:13:01;;;;;;;1.13;0.75;;;24.20;88.10;;;;;;5035942;28;45843;-66
2022/08/04 04:15:47;;;;;;;1.08;0.70;;;24.20;88.00;;;;;;5036157;28;46044;-66
2022/08/04 04:18:37;;;;;;;0.50;0.50;;;24.20;88.00;;;;;;5037117;27;45336;-66
2022/08/04 04:21:30;;;;;;;1.08;0.73;;;24.20;88.00;;;;;;5033165;28;45465;-66
2022/08/04 04:24:11;;;;;;;0.75;0.50;;;24.20;88.00;;;;;;5014379;28;45302;-66
2022/08/04 04:26:54;;;;;;;0.95;0.68;;;24.20;88.00;;;;;;5036161;28;45386;-66
2022/08/04 04:29:34;;;;;;;1.30;0.80;;;24.20;87.90;;;;;;5036720;28;45364;-66
2022/08/04 04:32:13;;;;;;;1.63;0.82;;;24.20;87.90;;;;;;5031518;28;45245;-66
2022/08/04 04:34:48;;;;;;;1.83;0.80;;;24.20;88.00;;;;;;5031723;27;45246;-66
2022/08/04 04:37:24;;;;;;;0.65;0.57;;;24.10;87.70;;;;;;5033696;28;46087;-67
2022/08/04 04:40:13;;;;;;;1.17;0.70;;;24.20;87.70;;;;;;5038569;27;45378;-66
2022/08/04 04:43:05;;;;;;;1.08;0.75;;;24.20;87.70;;;;;;5041252;27;45546;-66
2022/08/04 04:45:36;;;;;;;0.70;0.68;;;24.20;87.60;;;;;;5037725;28;45423;-66
2022/08/04 04:48:09;;;;;;;0.75;0.75;;;24.20;87.60;;;;;;5041565;27;46278;-66
2022/08/04 04:50:46;;;;;;;1.70;0.80;;;24.20;87.70;;;;;;5072363;27;45300;-67
2022/08/04 04:53:27;;;;;;;1.27;0.90;;;24.20;87.60;;;;;;5058680;27;45501;-65
2022/08/04 04:56:00;;;;;;;1.55;0.90;;;24.20;87.50;;;;;;5029308;28;45480;-66
2022/08/04 04:58:32;;;;;;;1.20;0.77;;;24.20;87.60;;;;;;5037265;28;46287;-66
2022/08/04 05:01:25;;;;;;;0.73;0.70;;;24.20;87.60;;;;;;5032557;27;45396;-67
2022/08/04 05:04:11;;;;;;;2.50;0.90;;;24.20;87.50;;;;;;5029220;28;45418;-66
2022/08/04 05:06:53;;;;;;;0.77;0.70;;;24.20;87.40;;;;;;5034270;28;45462;-66
2022/08/04 05:09:31;;;;;;;0.73;0.73;;;24.20;87.40;;;;;;5034608;27;46322;-67
2022/08/04 05:12:28;;;;;;;1.88;1.10;;;24.20;87.30;;;;;;5033315;28;45396;-66
2022/08/04 05:14:59;;;;;;;1.85;1.05;;;24.20;87.30;;;;;;5035336;27;45490;-66
2022/08/04 05:17:30;;;;;;;1.73;0.98;;;24.20;87.30;;;;;;5035380;28;45349;-67
2022/08/04 05:20:03;;;;;;;1.40;0.98;;;24.20;87.50;;;;;;5042725;27;46165;-66
2022/08/04 05:22:35;;;;;;;1.27;1.00;;;24.20;87.70;;;;;;5049075;27;45575;-67
2022/08/04 05:25:05;;;;;;;2.03;1.00;;;24.20;87.80;;;;;;5071391;27;45367;-66
2022/08/04 05:27:38;;;;;;;1.70;1.20;;;24.20;87.00;;;;;;5058618;27;45310;-66
2022/08/04 05:30:08;;;;;;;0.88;0.82;;;24.20;87.00;;;;;;5070823;27;47185;-67
2022/08/04 05:32:43;;;;;;;1.77;1.05;;;24.20;86.80;;;;;;5077580;27;45620;-66
2022/08/04 05:35:20;;;;;;;2.25;1.02;;;24.20;87.40;;;;;;5033434;28;45267;-67
2022/08/04 05:37:49;;;;;;;1.67;0.90;;;24.20;87.30;;;;;;5033681;28;45476;-67
2022/08/04 05:40:19;;;;;;;1.10;0.70;;;24.20;87.30;;;;;;5036252;28;47167;-67
2022/08/04 05:42:47;;;;;;;1.60;0.82;;;24.20;87.30;;;;;;5026551;28;45349;-67
2022/08/04 05:45:16;;;;;;;1.27;0.80;;;24.20;87.30;;;;;;5031801;28;45208;-67
2022/08/04 05:47:44;;;;;;;2.50;1.20;;;24.20;87.30;;;;;;5031223;28;45449;-67
2022/08/04 05:50:11;;;;;;;2.65;0.90;;;24.30;87.60;;;;;;5034106;27;46245;-68
2022/08/04 05:52:39;;;;;;;1.25;0.90;;;24.20;87.40;;;;;;5042025;28;45600;-67
2022/08/04 05:55:11;;;;;;;3.22;1.00;;;24.20;87.50;;;;;;5036208;27;45427;-67
2022/08/04 05:57:40;;;;;;;1.95;1.00;;;24.20;87.50;;;;;;5039443;27;45622;-67
2022/08/04 06:00:08;;;;;;;1.25;0.85;;;24.20;87.40;;;;;;5043920;28;48257;-68
2022/08/04 06:02:37;;;;;;;1.83;0.93;;;24.30;87.50;;;;;;5041331;28;45559;-67
2022/08/04 06:05:07;;;;;;;1.48;1.00;;;24.30;87.40;;;;;;5040322;27;45376;-67
2022/08/04 06:07:34;;;;;;;2.20;1.17;;;24.30;87.40;;;;;;5038241;27;45496;-67
2022/08/04 06:10:01;;;;;;;1.95;0.90;;;24.30;87.40;;;;;;5040191;27;45703;-67
2022/08/04 06:12:35;;;;;;;1.38;0.98;;;24.30;87.40;;;;;;5038163;28;45415;-67
2022/08/04 06:15:02;;;;;;;2.80;1.17;;;24.30;87.50;;;;;;5038352;28;45364;-67
2022/08/04 06:17:32;;;;;;;1.48;1.20;;;24.30;87.50;;;;;;5038818;28;45675;-67
2022/08/04 06:20:02;;;;;;;2.08;1.10;;;24.30;87.50;;;;;;5039566;27;46415;-67
2022/08/04 06:22:30;;;;;;;1.13;0.90;;;24.30;87.40;;;;;;5039595;28;45364;-67
2022/08/04 06:24:58;;;;;;;1.52;1.10;;;24.30;87.40;;;;;;5039049;27;45570;-67
2022/08/04 06:27:26;;;;;;;2.50;1.15;;;24.30;87.40;;;;;;5047314;28;45573;-67
2022/08/04 06:29:54;;;;;;;2.63;1.48;;;24.30;87.40;;;;;;5042391;28;47466;-67
2022/08/04 06:32:35;;;;;;;1.60;0.93;;;24.30;87.40;;;;;;5038786;27;45360;-67
2022/08/04 06:35:06;;;;;;;2.65;1.10;;;24.40;87.40;;;;;;5039471;28;45524;-68
2022/08/04 06:37:36;;;;;;;1.80;1.10;;;24.30;87.30;;;;;;5032849;27;45463;-66
2022/08/04 06:40:04;;;;;;;1.70;1.00;;;24.40;87.50;;;;;;5039285;27;47194;-67
2022/08/04 06:42:32;;;;;;;2.40;1.20;;;24.30;87.50;;;;;;5034890;27;45366;-67
2022/08/04 06:44:59;;;;;;;1.50;0.85;;;24.30;87.50;;;;;;5039038;27;45540;-66
2022/08/04 06:47:27;;;;;;;1.30;1.00;;;24.30;87.50;;;;;;5039393;28;45625;-68
2022/08/04 06:49:56;;;;;;;1.75;1.05;;;24.30;87.50;;;;;;5039000;28;46178;-66
2022/08/04 06:52:24;;;;;;;1.52;0.93;;;24.30;87.60;;;;;;5038340;28;45346;-67
2022/08/04 06:54:52;;;;;;;2.45;1.05;;;24.30;87.60;;;;;;5043507;28;45379;-67
2022/08/04 06:57:22;;;;;;;1.60;1.10;;;24.30;87.70;;;;;;5038767;27;45564;-66
2022/08/04 06:59:53;;;;;;;2.03;1.00;;;24.30;87.70;;;;;;5039715;28;47502;-67
2022/08/04 07:02:24;;;;;;;1.27;0.90;;;24.30;87.80;;;;;;5037291;28;45487;-66
2022/08/04 07:04:51;;;;;;;1.52;1.10;;;24.30;87.90;;;;;;5038835;28;45391;-67
2022/08/04 07:07:19;;;;;;;1.42;1.00;;;24.40;88.00;;;;;;5036869;28;45536;-67
2022/08/04 07:09:47;;;;;;;1.48;1.10;;;24.30;88.00;;;;;;5039662;28;47455;-66
2022/08/04 07:12:15;;;;;;;1.83;1.10;;;24.30;88.00;;;;;;5037785;28;45269;-66
2022/08/04 07:14:42;;;;;;;1.98;1.13;;;24.30;88.00;;;;;;5038329;28;45518;-66
2022/08/04 07:17:10;;;;;;;1.92;1.10;;;24.30;88.00;;;;;;5038272;28;45461;-66
2022/08/04 07:19:37;;;;;;;1.38;1.00;;;24.30;88.00;;;;;;5038230;28;46583;-67
2022/08/04 07:22:06;;;;;;;3.67;1.38;;;24.40;88.10;;;;;;5037396;28;45210;-67
2022/08/04 07:24:35;;;;;;;1.40;1.08;;;24.30;88.00;;;;;;5036596;28;45483;-67
2022/08/04 07:27:03;;;;;;;2.00;1.27;;;24.40;89.20;;;;;;5038138;28;45478;-66
2022/08/04 07:29:31;;;;;;;2.22;1.27;;;24.40;88.20;;;;;;5039443;27;45347;-66
2022/08/04 07:31:59;;;;;;;2.88;1.08;;;24.30;88.20;;;;;;5038475;28;45437;-66
2022/08/04 07:34:28;;;;;;;2.67;1.30;;;24.30;88.30;;;;;;5037421;27;45478;-67
2022/08/04 07:36:57;;;;;;;1.55;1.20;;;24.30;88.30;;;;;;5035862;27;45440;-66
2022/08/04 07:39:26;;;;;;;2.55;1.27;;;24.30;88.30;;;;;;5037174;28;47332;-66
2022/08/04 07:41:54;;;;;;;2.17;1.40;;;24.30;88.20;;;;;;5035855;27;45366;-66
2022/08/04 07:44:22;;;;;;;3.50;1.30;;;24.30;88.20;;;;;;5033862;28;45380;-66
2022/08/04 07:46:49;;;;;;;1.77;1.05;;;24.30;88.00;;;;;;5039278;28;45270;-68
2022/08/04 07:49:16;;;;;;;3.70;1.27;;;24.30;88.00;;;;;;5037737;28;47092;-67
2022/08/04 07:51:43;;;;;;;2.40;1.33;;;24.30;88.00;;;;;;5037642;28;45336;-66
2022/08/04 07:54:10;;;;;;;2.35;1.10;;;24.40;88.10;;;;;;5030059;28;45405;-67
2022/08/04 07:56:40;;;;;;;1.92;1.20;;;24.40;88.10;;;;;;5036670;27;45503;-68
2022/08/04 07:59:07;;;;;;;1.77;1.23;;;24.30;88.00;;;;;;5032322;28;46107;-67
2022/08/04 08:01:37;;;;;;;2.28;1.13;;;24.40;88.10;;;;;;5038425;27;45530;-67
2022/08/04 08:04:07;;;;;;;2.58;1.00;;;24.40;88.10;;;;;;5035473;28;45263;-67
2022/08/04 08:06:36;;;;;;;2.88;1.05;;;24.40;88.10;;;;;;5032024;27;45531;-66
2022/08/04 08:09:08;;;;;;;1.63;0.95;;;24.40;88.10;;;;;;5044124;27;48140;-67
2022/08/04 08:11:36;;;;;;;1.38;1.10;;;24.40;88.50;;;;;;5028714;27;45584;-67
2022/08/04 08:14:03;;;;;;;2.40;1.20;;;24.40;88.20;;;;;;5034134;28;45225;-66
2022/08/04 08:16:32;;;;;;;1.23;1.02;;;24.40;88.20;;;;;;5035146;27;45350;-66
2022/08/04 08:19:00;;;;;;;1.90;1.13;;;24.40;88.20;;;;;;5038126;27;47649;-67
2022/08/04 08:21:27;;;;;;;1.52;1.15;;;24.40;88.20;;;;;;5035947;28;45210;-66
2022/08/04 08:23:54;;;;;;;2.00;1.30;;;24.40;88.20;;;;;;5033523;28;45380;-67
2022/08/04 08:26:21;;;;;;;2.53;1.30;;;24.40;88.20;;;;;;5037344;28;45353;-67
2022/08/04 08:28:48;;;;;;;1.65;1.10;;;24.40;88.20;;;;;;5038035;28;47515;-66
2022/08/04 08:31:15;;;;;;;1.85;1.20;;;24.40;88.30;;;;;;5034943;28;45329;-66
2022/08/04 08:33:42;;;;;;;2.83;1.10;;;24.40;88.20;;;;;;5037816;28;45341;-67
2022/08/04 08:36:17;;;;;;;1.73;0.95;;;24.40;88.20;;;;;;5036576;27;45505;-66
2022/08/04 08:38:55;;;;;;;1.42;1.05;;;24.40;88.20;;;;;;5038078;28;45228;-66
2022/08/04 08:42:02;;;;;;;2.55;1.30;;;24.40;88.30;;;;;;5033142;28;45585;-67
2022/08/04 08:44:49;;;;;;;2.30;1.15;;;24.40;88.30;;;;;;5019591;28;45310;-67
2022/08/04 08:47:28;;;;;;;1.98;1.23;;;24.40;88.40;;;;;;5035279;28;45470;-67
2022/08/04 08:50:09;;;;;;;2.33;1.00;;;24.40;88.40;;;;;;5034106;28;47483;-66
2022/08/04 08:52:52;;;;;;;1.60;1.13;;;24.40;88.30;;;;;;5030055;27;45420;-66
2022/08/04 08:55:30;;;;;;;1.35;1.08;;;24.40;88.40;;;;;;5029360;28;45408;-67
2022/08/04 08:58:10;;;;;;;1.83;1.15;;;24.40;88.30;;;;;;5037629;28;45470;-66
2022/08/04 09:00:51;;;;;;;2.20;1.00;;;24.40;88.20;;;;;;5030840;28;48046;-66
2022/08/04 09:03:38;;;;;;;1.30;0.95;;;24.40;88.10;;;;;;5036205;28;45336;-66
2022/08/04 09:06:27;;;;;;;1.10;0.80;;;24.40;88.10;;;;;;5033954;28;45301;-66
2022/08/04 09:09:14;;;;;;;1.40;1.10;;;24.40;88.00;;;;;;5032185;27;45327;-65
2022/08/04 09:11:48;;;;;;;1.67;1.17;;;24.40;88.00;;;;;;5036273;28;46519;-66
2022/08/04 09:14:22;;;;;;;1.48;0.90;;;24.40;88.00;;;;;;5039621;28;45455;-66
2022/08/04 09:16:54;;;;;;;1.52;1.15;;;24.40;88.00;;;;;;5044557;27;45345;-67
2022/08/04 09:19:25;;;;;;;1.20;1.08;;;24.40;88.00;;;;;;5036603;28;45394;-66
2022/08/04 09:21:58;;;;;;;1.63;1.02;;;24.40;88.00;;;;;;5044754;28;47405;-66
2022/08/04 09:24:37;;;;;;;1.38;0.90;;;24.40;87.90;;;;;;5036814;28;45931;-66
2022/08/04 09:27:09;;;;;;;1.50;1.00;;;24.40;87.70;;;;;;5034401;28;45529;-66
2022/08/04 09:29:41;;;;;;;1.85;1.00;;;24.40;87.60;;;;;;5034452;28;45669;-66
2022/08/04 09:32:16;;;;;;;0.80;0.80;;;24.40;87.50;;;;;;5036235;28;47709;-66
2022/08/04 09:34:52;;;;;;;2.10;0.90;;;24.40;87.40;;;;;;5035748;28;45288;-66
2022/08/04 09:37:30;;;;;;;1.58;1.05;;;24.40;87.40;;;;;;5033422;27;45325;-66
2022/08/04 09:40:11;;;;;;;1.95;1.10;;;24.40;87.40;;;;;;5037787;28;45383;-66
2022/08/04 09:42:44;;;;;;;1.08;0.90;;;24.40;87.50;;;;;;5038373;28;46583;-66
2022/08/04 09:45:19;;;;;;;1.92;1.15;;;24.40;87.50;;;;;;5035121;28;46242;-67
2022/08/04 09:47:50;;;;;;;1.38;1.02;;;24.40;87.20;;;;;;5037410;28;45264;-67
2022/08/04 09:50:32;;;;;;;1.52;0.88;;;24.40;87.30;;;;;;5036448;27;45460;-66
2022/08/04 09:53:20;;;;;;;1.70;1.02;;;24.40;87.40;;;;;;5034549;28;46104;-66
2022/08/04 09:55:57;;;;;;;1.33;0.80;;;24.40;87.50;;;;;;5031791;28;45217;-66
2022/08/04 09:58:38;;;;;;;1.92;1.00;;;24.40;87.50;;;;;;5036014;27;45506;-66
2022/08/04 10:01:11;;;;;;;1.63;0.95;;;24.40;87.40;;;;;;5036397;28;45547;-66
2022/08/04 10:03:43;;;;;;;1.30;0.95;;;24.40;87.40;;;;;;5030011;28;47068;-67
2022/08/04 10:06:44;;;;;;;1.38;1.00;;;24.40;87.20;;;;;;5030624;27;45356;-66
2022/08/04 10:09:26;;;;;;;1.25;0.90;;;24.40;87.10;;;;;;5034942;28;45261;-66
2022/08/04 10:12:10;;;;;;;2.58;1.10;;;24.40;86.90;;;;;;5027135;28;45334;-66
2022/08/04 10:14:40;;;;;;;1.45;1.00;;;24.40;86.80;;;;;;5029169;28;46270;-66
2022/08/04 10:17:23;;;;;;;1.67;0.80;;;24.40;86.90;;;;;;5033405;28;45357;-67
2022/08/04 10:20:00;;;;;;;0.77;0.77;;;24.40;86.90;;;;;;5035583;27;45345;-66
2022/08/04 10:22:33;;;;;;;1.65;0.95;;;24.40;86.90;;;;;;5036108;28;45596;-66
2022/08/04 10:25:07;;;;;;;0.95;0.90;;;24.40;86.90;;;;;;5035152;28;46596;-66
2022/08/04 10:27:46;;;;;;;1.45;0.93;;;24.40;86.60;;;;;;5033312;27;45578;-66
2022/08/04 10:30:16;;;;;;;1.63;0.82;;;24.40;86.60;;;;;;5034439;27;45385;-66
2022/08/04 10:32:49;;;;;;;1.90;0.88;;;24.40;86.70;;;;;;5035802;27;45482;-66
2022/08/04 10:35:19;;;;;;;0.85;0.75;;;24.40;86.70;;;;;;5035531;27;45364;-66
2022/08/04 10:37:58;;;;;;;2.25;1.10;;;24.40;86.70;;;;;;5030682;27;45874;-66
2022/08/04 10:40:38;;;;;;;1.75;0.82;;;24.40;86.60;;;;;;5032751;28;45297;-67
2022/08/04 10:43:12;;;;;;;2.83;0.90;;;24.40;86.90;;;;;;5057672;27;45516;-67
2022/08/04 10:45:44;;;;;;;2.05;0.90;;;24.40;86.60;;;;;;5037122;28;46743;-66
2022/08/04 10:48:22;;;;;;;2.58;1.00;;;24.40;86.60;;;;;;5038391;28;45431;-66
2022/08/04 10:51:04;;;;;;;1.90;1.05;;;24.40;86.40;;;;;;5038426;27;45484;-67
2022/08/04 10:53:34;;;;;;;1.17;1.08;;;24.40;86.20;;;;;;5035659;27;45625;-66
2022/08/04 10:56:06;;;;;;;3.17;1.17;;;24.40;86.30;;;;;;5038009;27;46325;-68
2022/08/04 10:58:40;;;;;;;3.13;1.10;;;24.40;86.30;;;;;;5037467;27;45603;-66
2022/08/04 11:01:15;;;;;;;2.13;0.90;;;24.40;86.40;;;;;;5035236;27;45340;-66
2022/08/04 11:03:49;;;;;;;3.42;0.90;;;24.40;86.40;;;;;;5039346;27;45600;-66
2022/08/04 11:06:17;;;;;;;2.92;1.17;;;24.50;86.30;;;;;;5035887;28;46399;-67
2022/08/04 11:08:48;;;;;;;2.45;1.10;;;24.50;86.30;;;;;;5036546;27;45517;-66
2022/08/04 11:11:20;;;;;;;1.23;0.80;;;24.50;86.20;;;;;;5037374;27;45381;-66
2022/08/04 11:13:57;;;;;;;2.47;1.02;;;24.50;86.20;;;;;;5031371;27;45492;-67
2022/08/04 11:16:27;;;;;;;0.90;0.80;;;24.50;86.20;;;;;;5032440;28;45266;-66
2022/08/04 11:19:10;;;;;;;2.17;1.17;;;24.50;86.20;;;;;;5034816;28;45546;-66
2022/08/04 11:21:43;;;;;;;1.33;0.90;;;24.50;86.30;;;;;;5032589;28;45455;-66
2022/08/04 11:24:15;;;;;;;1.15;1.05;;;24.50;86.20;;;;;;5036384;28;45266;-66
2022/08/04 11:26:49;;;;;;;1.30;0.77;;;24.50;86.20;;;;;;5030327;28;45653;-66
2022/08/04 11:29:25;;;;;;;1.33;0.65;;;24.60;86.20;;;;;;5031889;27;45507;-66
2022/08/04 11:31:53;;;;;;;2.15;0.85;;;24.50;86.00;;;;;;5035081;27;45424;-67
2022/08/04 11:34:21;;;;;;;1.88;0.90;;;24.50;85.90;;;;;;5037664;27;45440;-67
2022/08/04 11:36:54;;;;;;;1.85;0.95;;;24.60;85.90;;;;;;5038276;28;46087;-67
2022/08/04 11:39:28;;;;;;;1.10;0.90;;;24.60;85.90;;;;;;5038607;27;45349;-65
2022/08/04 11:42:01;;;;;;;1.35;0.82;;;24.60;86.10;;;;;;5035109;27;45571;-66
2022/08/04 11:44:34;;;;;;;1.05;0.73;;;24.60;86.20;;;;;;5037408;27;45266;-66
2022/08/04 11:47:07;;;;;;;1.52;1.00;;;24.60;86.30;;;;;;5038295;27;47696;-67
2022/08/04 11:49:40;;;;;;;0.98;0.90;;;24.60;86.10;;;;;;5031068;28;45528;-66
2022/08/04 11:52:09;;;;;;;1.48;0.90;;;24.60;86.30;;;;;;5038732;28;45386;-66
2022/08/04 11:54:38;;;;;;;1.25;1.05;;;24.60;86.10;;;;;;5031688;28;45376;-66
2022/08/04 11:57:05;;;;;;;1.48;1.00;;;24.60;86.30;;;;;;5038039;27;47321;-67
2022/08/04 11:59:35;;;;;;;1.70;0.80;;;24.60;86.30;;;;;;5029851;28;45505;-66
2022/08/04 12:02:32;;;;;;;1.02;0.90;;;24.60;87.20;;;;;;5037935;27;45548;-67
2022/08/04 12:05:01;;;;;;;1.08;0.80;;;24.60;86.10;;;;;;5035137;28;45440;-66
2022/08/04 12:07:44;;;;;;;1.25;0.77;;;24.50;86.00;;;;;;5037891;28;45483;-66
2022/08/04 12:10:31;;;;;;;1.45;0.90;;;24.50;86.10;;;;;;5037723;28;45639;-66
2022/08/04 12:13:05;;;;;;;1.00;0.80;;;24.50;86.10;;;;;;5038690;28;45410;-66
2022/08/04 12:15:44;;;;;;;1.25;0.85;;;24.50;86.20;;;;;;5034154;28;45495;-66
2022/08/04 12:18:19;;;;;;;2.38;1.13;;;24.50;86.20;;;;;;5035870;28;46299;-66
2022/08/04 12:20:49;;;;;;;1.23;1.05;;;24.50;86.20;;;;;;5035417;28;45414;-66
2022/08/04 12:23:22;;;;;;;1.25;1.00;;;24.50;86.30;;;;;;5037406;28;45720;-66
2022/08/04 12:25:53;;;;;;;1.08;0.82;;;24.50;86.40;;;;;;5031554;28;45264;-66
2022/08/04 12:28:26;;;;;;;1.27;0.90;;;24.50;86.30;;;;;;5036848;28;46619;-65
2022/08/04 12:31:14;;;;;;;1.85;0.90;;;24.50;86.30;;;;;;5033294;28;45489;-65
2022/08/04 12:33:49;;;;;;;1.55;0.90;;;24.50;86.40;;;;;;5038222;28;45549;-67
2022/08/04 12:36:21;;;;;;;0.90;0.82;;;24.50;86.40;;;;;;5036614;28;45614;-67
2022/08/04 12:38:55;;;;;;;1.10;0.60;;;24.60;86.60;;;;;;5036808;28;45462;-66
2022/08/04 12:41:27;;;;;;;1.83;0.98;;;24.60;86.60;;;;;;5036525;28;45275;-66
2022/08/04 12:43:55;;;;;;;1.63;1.08;;;24.60;86.80;;;;;;5031935;28;45419;-66
2022/08/04 12:46:25;;;;;;;1.55;1.00;;;24.60;86.90;;;;;;5031965;28;45608;-66
2022/08/04 12:48:54;;;;;;;0.90;0.80;;;24.60;86.90;;;;;;5036504;28;45519;-66
2022/08/04 12:51:22;;;;;;;2.45;1.20;;;24.60;87.00;;;;;;5036341;28;45416;-67
2022/08/04 12:53:51;;;;;;;3.08;1.25;;;24.60;87.10;;;;;;5037788;28;45485;-66
2022/08/04 12:56:26;;;;;;;1.77;1.15;;;24.60;87.10;;;;;;5035172;28;45451;-66
2022/08/04 12:59:00;;;;;;;1.55;0.85;;;24.60;87.10;;;;;;5035741;28;46393;-66
2022/08/04 13:01:29;;;;;;;0.88;0.80;;;24.60;87.20;;;;;;5035518;27;45333;-66
2022/08/04 13:04:00;;;;;;;1.58;0.80;;;24.60;88.20;;;;;;5037805;28;45533;-67
2022/08/04 13:06:31;;;;;;;2.30;0.80;;;24.60;87.20;;;;;;5034535;28;45262;-67
2022/08/04 13:09:04;;;;;;;0.98;0.88;;;24.60;87.10;;;;;;5035425;28;45286;-66
2022/08/04 13:11:36;;;;;;;0.95;0.70;;;24.60;87.00;;;;;;5031989;27;45491;-66
2022/08/04 13:14:04;;;;;;;2.15;1.08;;;24.60;87.00;;;;;;5032070;28;45376;-67
2022/08/04 13:16:33;;;;;;;1.30;0.90;;;24.60;86.80;;;;;;5035211;27;45576;-66
2022/08/04 13:19:00;;;;;;;1.00;0.90;;;24.60;86.80;;;;;;5035921;27;47340;-66
2022/08/04 13:21:29;;;;;;;1.98;0.90;;;24.60;86.80;;;;;;5036800;27;45435;-66
2022/08/04 13:23:59;;;;;;;1.40;0.90;;;24.60;86.80;;;;;;5037436;28;45595;-66
2022/08/04 13:26:27;;;;;;;0.70;0.70;;;24.60;87.70;;;;;;5034912;28;45637;-66
2022/08/04 13:28:58;;;;;;;2.10;0.85;;;24.50;86.60;;;;;;5037165;28;46295;-67